Overview Statistics Trail Chart Weather Telemetry Raw packets
 

This is the latest recevied weather packets stored in our database for station/object KG7DQI-13. If no packets are shown the sender has not sent any weather packets the latest 10 day(s).

<< 1 2 3 4 >>
Time Temp. Humidity Pressure Rain* Wind** Luminosity Snow
1788585482 8.33° C 92% 914.7 hPa 0 mm - 0 W/m² -
1788583666 8.89° C 91% 914.6 hPa 0 mm - 0 W/m² -
1788582741 8.89° C 91% 914.6 hPa 0 mm - 0 W/m² -
1788581838 9.44° C 90% 914.5 hPa 0 mm - 0 W/m² -
1788580913 9.44° C 89% 914.5 hPa 1.02 mm - 0 W/m² -
1788580001 10° C 88% 914.5 hPa 1.02 mm - 0 W/m² -
1788579103 10° C 86% 914.4 hPa 0 mm - 0 W/m² -
1788578181 10° C 86% 914.5 hPa 0 mm - 0 W/m² -
1788577286 10° C 86% 914.3 hPa 0 mm - 0 W/m² -
1788574604 11.67° C 82% 914 hPa 0 mm - 5 W/m² -
1788572831 12.22° C 79% 913.7 hPa 0 mm - 11 W/m² -
1788571934 12.78° C 76% 913.7 hPa 0 mm - 21 W/m² -
1788570994 12.78° C 70% 913.2 hPa 0 mm - 26 W/m² -
1788570078 13.33° C 67% 913.4 hPa 0 mm - 33 W/m² -
1788567461 12.78° C 70% 913 hPa 0 mm - 128 W/m² -
1788565682 11.67° C 83% 912.7 hPa 0 mm - 113 W/m² -
1788564736 11.11° C 90% 912.8 hPa 0 mm - 135 W/m² -
1788562936 10.56° C 87% 912.9 hPa 1.52 mm - 39 W/m² -
1788559373 17.22° C 49% 912 hPa 0 mm - 793 W/m² -
1788558478 16.67° C 51% 912 hPa 0 mm - 564 W/m² -
1788557559 16.67° C 51% 912 hPa 0 mm - 795 W/m² -
1788556627 16.11° C 53% 912.1 hPa 0 mm - 768 W/m² -
1788554843 16.67° C 50% 912.3 hPa 0 mm - 766 W/m² -
1788553925 15.56° C 51% 912.3 hPa 0 mm - 884 W/m² -
1788553015 15.56° C 52% 912.4 hPa 0 mm - 483 W/m² -

* Rain latest hour (hover to see other rain measurements)
** Current wind speed in m/s (hover to see current wind gust speed)